createdAt,value
2016-06-27T00:00:01.103Z,0
2016-06-27T00:01:00.496Z,0
2016-06-27T00:01:59.862Z,0
2016-06-27T00:03:01.165Z,0
2016-06-27T00:03:59.826Z,0
2016-06-27T00:05:00.447Z,0
2016-06-27T00:05:59.807Z,0
2016-06-27T00:07:00.011Z,0
2016-06-27T00:07:59.811Z,0
2016-06-27T00:09:00.995Z,0
2016-06-27T00:10:00.599Z,0
2016-06-27T00:11:00.359Z,0
2016-06-27T00:12:00.359Z,0
2016-06-27T00:12:59.707Z,0
2016-06-27T00:14:00.323Z,0
2016-06-27T00:14:59.695Z,0
2016-06-27T00:16:00.278Z,0
2016-06-27T00:16:59.655Z,0
2016-06-27T00:17:59.042Z,0
2016-06-27T00:19:00.257Z,0
2016-06-27T00:19:59.623Z,0
2016-06-27T00:20:59.630Z,0
2016-06-27T00:22:00.820Z,0
2016-06-27T00:22:59.572Z,0
2016-06-27T00:24:00.199Z,0
2016-06-27T00:25:00.166Z,0
2016-06-27T00:25:59.565Z,0
2016-06-27T00:26:59.538Z,0
2016-06-27T00:27:59.518Z,0
2016-06-27T00:29:00.134Z,0
2016-06-27T00:29:59.534Z,0
2016-06-27T00:31:00.703Z,0
2016-06-27T00:31:59.462Z,0
2016-06-27T00:32:59.458Z,0
2016-06-27T00:34:00.658Z,0
2016-06-27T00:34:59.422Z,0
2016-06-27T00:36:00.629Z,0
2016-06-27T00:36:59.404Z,0
2016-06-27T00:37:59.390Z,0
2016-06-27T00:39:00.611Z,0
2016-06-27T00:39:58.750Z,0
2016-06-27T00:40:59.362Z,0
2016-06-27T00:41:59.941Z,0
2016-06-27T00:42:59.928Z,0
2016-06-27T00:44:00.529Z,0
2016-06-27T00:45:00.524Z,0
2016-06-27T00:45:59.896Z,0
2016-06-27T00:46:59.884Z,0
2016-06-27T00:47:59.284Z,0
2016-06-27T00:48:59.263Z,0
2016-06-27T00:50:00.447Z,0
2016-06-27T00:50:59.863Z,0
2016-06-27T00:51:59.257Z,0
2016-06-27T00:52:58.638Z,0
2016-06-27T00:54:00.396Z,0
2016-06-27T00:54:59.780Z,0
2016-06-27T00:55:59.163Z,0
2016-06-27T00:56:59.747Z,0
2016-06-27T00:57:59.114Z,0
2016-06-27T00:58:59.725Z,0
2016-06-27T00:59:59.697Z,0
2016-06-27T01:00:58.480Z,0
2016-06-27T01:02:00.295Z,0
2016-06-27T01:02:59.050Z,0
2016-06-27T01:03:59.033Z,0
2016-06-27T01:04:59.036Z,0
2016-06-27T01:05:59.645Z,0
2016-06-27T01:06:58.986Z,0
2016-06-27T01:07:58.405Z,0
2016-06-27T01:08:58.379Z,0
2016-06-27T01:09:58.957Z,0
2016-06-27T01:10:58.946Z,0
2016-06-27T01:11:59.538Z,0
2016-06-27T01:12:58.907Z,0
2016-06-27T01:14:00.186Z,0
2016-06-27T01:14:58.265Z,0
2016-06-27T01:15:59.511Z,0
2016-06-27T01:16:58.886Z,0
2016-06-27T01:17:59.480Z,0
2016-06-27T01:18:58.839Z,0
2016-06-27T01:19:58.881Z,0
2016-06-27T01:20:58.814Z,0
2016-06-27T01:21:59.423Z,0
2016-06-27T01:22:59.622Z,0
2016-06-27T01:23:59.392Z,0
2016-06-27T01:24:58.758Z,0
2016-06-27T01:25:59.366Z,0
2016-06-27T01:26:59.349Z,0
2016-06-27T01:27:59.323Z,0
2016-06-27T01:28:59.509Z,0
2016-06-27T01:29:59.314Z,0
2016-06-27T01:30:59.319Z,0
2016-06-27T01:31:59.291Z,0
2016-06-27T01:32:58.045Z,0
2016-06-27T01:33:58.676Z,0
2016-06-27T01:34:58.606Z,0
2016-06-27T01:35:58.648Z,0
2016-06-27T01:36:59.243Z,0
2016-06-27T01:37:59.187Z,0
2016-06-27T01:38:59.180Z,0
2016-06-27T01:39:57.954Z,0
2016-06-27T01:40:59.180Z,0
2016-06-27T01:41:57.952Z,0
2016-06-27T01:42:59.134Z,0
2016-06-27T01:43:59.719Z,0
2016-06-27T01:44:59.722Z,0
2016-06-27T01:45:59.081Z,0
2016-06-27T01:46:59.069Z,0
2016-06-27T01:47:58.462Z,0
2016-06-27T01:48:59.059Z,0
2016-06-27T01:49:59.026Z,0
2016-06-27T01:50:59.054Z,0
2016-06-27T01:51:57.827Z,0
2016-06-27T01:52:58.381Z,0
2016-06-27T01:53:58.371Z,0
2016-06-27T01:54:58.963Z,0
2016-06-27T01:55:58.943Z,0
2016-06-27T01:56:58.939Z,0
2016-06-27T01:57:58.934Z,0
2016-06-27T01:58:59.537Z,0
2016-06-27T01:59:58.923Z,0
2016-06-27T02:00:58.891Z,0
2016-06-27T02:01:59.497Z,0
2016-06-27T02:02:58.234Z,0
2016-06-27T02:03:58.828Z,0
2016-06-27T02:04:57.616Z,0
2016-06-27T02:05:58.206Z,0
2016-06-27T02:06:57.779Z,0
2016-06-27T02:07:58.161Z,0
2016-06-27T02:08:58.159Z,0
2016-06-27T02:09:58.145Z,0
2016-06-27T02:10:58.740Z,0
2016-06-27T02:11:58.167Z,0
2016-06-27T02:12:57.499Z,0
2016-06-27T02:13:57.484Z,0
2016-06-27T02:14:57.502Z,0
2016-06-27T02:15:59.308Z,0
2016-06-27T02:16:58.061Z,0
2016-06-27T02:17:58.685Z,0
2016-06-27T02:18:58.015Z,0
2016-06-27T02:19:58.646Z,0
2016-06-27T02:20:58.627Z,0
2016-06-27T02:21:58.592Z,0
2016-06-27T02:22:58.587Z,0
2016-06-27T02:23:59.168Z,0
2016-06-27T02:24:57.955Z,0
2016-06-27T02:25:58.529Z,0
2016-06-27T02:26:57.306Z,0
2016-06-27T02:27:57.885Z,0
2016-06-27T02:28:58.532Z,0
2016-06-27T02:29:57.883Z,0
2016-06-27T02:30:59.105Z,0
2016-06-27T02:31:58.454Z,0
2016-06-27T02:32:57.819Z,0
2016-06-27T02:33:58.418Z,4
2016-06-27T02:34:59.024Z,4
2016-06-27T02:35:57.189Z,0
2016-06-27T02:36:57.155Z,0
2016-06-27T02:37:58.370Z,4
2016-06-27T02:38:58.383Z,4
2016-06-27T02:39:57.716Z,4
2016-06-27T02:40:57.123Z,4
2016-06-27T02:41:58.313Z,4
2016-06-27T02:42:57.693Z,4
2016-06-27T02:43:58.301Z,4
2016-06-27T02:44:57.067Z,8
2016-06-27T02:45:57.668Z,4
2016-06-27T02:46:57.652Z,8
2016-06-27T02:47:57.618Z,8
2016-06-27T02:48:58.229Z,12
2016-06-27T02:49:57.641Z,12
2016-06-27T02:50:58.192Z,12
2016-06-27T02:51:57.563Z,16
2016-06-27T02:52:57.546Z,16
2016-06-27T02:53:58.166Z,20
2016-06-27T02:54:57.561Z,24
2016-06-27T02:55:56.900Z,24
2016-06-27T02:56:57.515Z,28
2016-06-27T02:57:57.520Z,32
2016-06-27T02:58:58.082Z,36
2016-06-27T02:59:56.850Z,36
2016-06-27T03:00:57.435Z,44
2016-06-27T03:01:57.443Z,48
2016-06-27T03:02:57.416Z,56
2016-06-27T03:03:57.396Z,56
2016-06-27T03:04:58.619Z,68
2016-06-27T03:05:57.370Z,72
2016-06-27T03:06:57.966Z,76
2016-06-27T03:07:58.016Z,84
2016-06-27T03:08:58.562Z,92
2016-06-27T03:09:57.316Z,100
2016-06-27T03:10:57.922Z,112
2016-06-27T03:11:58.542Z,120
2016-06-27T03:12:57.901Z,132
2016-06-27T03:13:57.286Z,136
2016-06-27T03:14:57.242Z,152
2016-06-27T03:15:57.851Z,160
2016-06-27T03:16:57.218Z,172
2016-06-27T03:17:57.207Z,180
2016-06-27T03:18:57.201Z,192
2016-06-27T03:19:57.211Z,204
2016-06-27T03:20:58.410Z,216
2016-06-27T03:21:57.770Z,232
2016-06-27T03:22:57.127Z,244
2016-06-27T03:23:57.126Z,260
2016-06-27T03:24:57.111Z,268
2016-06-27T03:25:58.370Z,288
2016-06-27T03:26:57.110Z,304
2016-06-27T03:27:58.302Z,320
2016-06-27T03:28:57.083Z,336
2016-06-27T03:29:57.058Z,352
2016-06-27T03:30:56.433Z,368
2016-06-27T03:31:56.426Z,380
2016-06-27T03:32:58.261Z,396
2016-06-27T03:33:56.369Z,416
2016-06-27T03:34:56.983Z,432
2016-06-27T03:35:56.351Z,452
2016-06-27T03:36:56.944Z,468
2016-06-27T03:37:56.942Z,484
2016-06-27T03:38:56.308Z,500
2016-06-27T03:39:57.504Z,516
2016-06-27T03:40:58.130Z,532
2016-06-27T03:41:57.473Z,552
2016-06-27T03:42:58.097Z,568
2016-06-27T03:43:58.084Z,588
2016-06-27T03:44:57.440Z,608
2016-06-27T03:45:58.064Z,624
2016-06-27T03:46:57.428Z,644
2016-06-27T03:47:56.802Z,664
2016-06-27T03:48:57.383Z,684
2016-06-27T03:49:56.749Z,700
2016-06-27T03:50:56.130Z,716
2016-06-27T03:51:57.353Z,736
2016-06-27T03:52:57.361Z,752
2016-06-27T03:53:57.308Z,772
2016-06-27T03:54:56.691Z,784
2016-06-27T03:55:56.698Z,796
2016-06-27T03:56:57.898Z,808
2016-06-27T03:57:56.711Z,824
2016-06-27T03:58:56.643Z,844
2016-06-27T03:59:57.248Z,868
2016-06-27T04:00:56.857Z,884
2016-06-27T04:01:56.582Z,904
2016-06-27T04:02:56.595Z,912
2016-06-27T04:03:56.618Z,928
2016-06-27T04:04:55.948Z,940
2016-06-27T04:05:56.534Z,960
2016-06-27T04:06:57.346Z,976
2016-06-27T04:07:55.890Z,996
2016-06-27T04:08:56.492Z,1016
2016-06-27T04:09:56.496Z,1032
2016-06-27T04:10:56.461Z,1044
2016-06-27T04:11:56.487Z,1060
2016-06-27T04:12:57.065Z,1076
2016-06-27T04:13:57.062Z,1088
2016-06-27T04:14:57.017Z,1100
2016-06-27T04:15:57.648Z,1116
2016-06-27T04:16:57.010Z,1128
2016-06-27T04:17:57.661Z,1136
2016-06-27T04:18:57.583Z,1148
2016-06-27T04:19:57.584Z,1168
2016-06-27T04:20:56.353Z,1184
2016-06-27T04:21:56.333Z,1204
2016-06-27T04:22:56.912Z,1216
2016-06-27T04:23:56.283Z,1232
2016-06-27T04:24:56.278Z,1248
2016-06-27T04:25:56.872Z,1256
2016-06-27T04:26:56.929Z,1268
2016-06-27T04:27:56.851Z,1280
2016-06-27T04:28:55.638Z,1288
2016-06-27T04:29:57.587Z,1296
2016-06-27T04:30:56.225Z,1308
2016-06-27T04:31:56.195Z,1320
2016-06-27T04:32:56.793Z,1332
2016-06-27T04:33:56.769Z,1340
2016-06-27T04:34:56.743Z,1352
2016-06-27T04:35:56.752Z,1360
2016-06-27T04:36:56.111Z,1372
2016-06-27T04:37:56.727Z,1380
2016-06-27T04:38:55.473Z,1392
2016-06-27T04:39:55.469Z,1404
2016-06-27T04:40:56.726Z,1412
2016-06-27T04:41:56.284Z,1424
2016-06-27T04:42:57.566Z,1432
2016-06-27T04:43:57.285Z,1436
2016-06-27T04:44:57.247Z,1448
2016-06-27T04:45:56.009Z,1456
2016-06-27T04:46:57.223Z,1460
2016-06-27T04:47:55.976Z,1464
2016-06-27T04:48:56.087Z,1480
2016-06-27T04:49:55.949Z,1484
2016-06-27T04:50:55.973Z,1492
2016-06-27T04:51:55.903Z,1496
2016-06-27T04:52:55.305Z,1512
2016-06-27T04:53:55.877Z,1512
2016-06-27T04:54:56.474Z,1520
2016-06-27T04:55:55.850Z,1524
2016-06-27T04:56:56.442Z,1528
2016-06-27T04:57:55.276Z,1540
2016-06-27T04:58:55.815Z,1548
2016-06-27T04:59:57.153Z,1560
2016-06-27T05:00:57.050Z,1572
2016-06-27T05:01:57.005Z,1580
2016-06-27T05:02:56.383Z,1588
2016-06-27T05:03:56.363Z,1604
2016-06-27T05:04:55.724Z,1612
2016-06-27T05:05:56.367Z,1620
2016-06-27T05:06:55.702Z,1628
2016-06-27T05:07:55.702Z,1636
2016-06-27T05:08:55.686Z,1648
2016-06-27T05:09:56.269Z,1656
2016-06-27T05:10:56.266Z,1672
2016-06-27T05:11:56.247Z,1680
2016-06-27T05:12:56.260Z,1692
2016-06-27T05:13:55.630Z,1692
2016-06-27T05:14:56.211Z,1696
2016-06-27T05:15:56.801Z,1704
2016-06-27T05:16:56.805Z,1712
2016-06-27T05:17:55.598Z,1720
2016-06-27T05:18:56.770Z,1728
2016-06-27T05:19:56.792Z,1740
2016-06-27T05:20:56.159Z,1748
2016-06-27T05:21:55.511Z,1772
2016-06-27T05:22:56.106Z,1800
2016-06-27T05:23:55.477Z,1808
2016-06-27T05:24:55.457Z,1824
2016-06-27T05:25:56.687Z,1832
2016-06-27T05:26:55.428Z,1856
2016-06-27T05:27:56.029Z,1876
2016-06-27T05:29:00.347Z,1904
2016-06-27T05:29:54.787Z,1936
2016-06-27T05:30:55.992Z,1980
2016-06-27T05:31:55.976Z,2028
2016-06-27T05:32:55.968Z,2076
2016-06-27T05:33:55.975Z,2136
2016-06-27T05:34:55.926Z,2196
2016-06-27T05:35:55.532Z,2264
2016-06-27T05:36:55.305Z,2376
2016-06-27T05:37:56.514Z,2532
2016-06-27T05:38:55.897Z,2672
2016-06-27T05:39:55.257Z,2844
2016-06-27T05:40:56.499Z,3024
2016-06-27T05:41:55.243Z,3224
2016-06-27T05:42:56.462Z,3432
2016-06-27T05:43:55.215Z,3656
2016-06-27T05:44:55.196Z,3900
2016-06-27T05:45:55.187Z,4172
2016-06-27T05:46:55.779Z,4444
2016-06-27T05:47:55.774Z,4792
2016-06-27T05:48:55.782Z,5040
2016-06-27T05:49:55.135Z,5252
2016-06-27T05:50:55.122Z,5400
2016-06-27T05:51:54.484Z,5488
2016-06-27T05:52:55.698Z,5556
2016-06-27T05:53:55.695Z,5724
2016-06-27T05:54:55.673Z,5360
2016-06-27T05:55:55.694Z,5212
2016-06-27T05:56:56.277Z,5000
2016-06-27T05:57:55.663Z,4832
2016-06-27T05:58:55.630Z,4568
2016-06-27T05:59:55.607Z,4328
2016-06-27T06:00:54.989Z,4112
2016-06-27T06:01:54.991Z,3924
2016-06-27T06:02:56.202Z,3716
2016-06-27T06:03:54.955Z,3412
2016-06-27T06:04:54.928Z,3236
2016-06-27T06:05:54.951Z,2988
2016-06-27T06:06:55.187Z,2828
2016-06-27T06:07:54.899Z,2948
2016-06-27T06:08:55.498Z,2900
2016-06-27T06:09:55.492Z,2608
2016-06-27T06:10:54.860Z,2720
2016-06-27T06:11:54.852Z,2596
2016-06-27T06:12:54.838Z,2484
2016-06-27T06:13:56.060Z,2520
2016-06-27T06:14:56.056Z,2528
2016-06-27T06:15:55.414Z,2384
2016-06-27T06:16:54.169Z,2352
2016-06-27T06:17:55.412Z,2332
2016-06-27T06:18:54.769Z,2032
2016-06-27T06:19:54.753Z,10624
2016-06-27T06:20:55.957Z,20704
2016-06-27T06:21:54.724Z,20512
2016-06-27T06:22:55.949Z,21632
2016-06-27T06:23:55.312Z,13632
2016-06-27T06:24:55.306Z,16608
2016-06-27T06:25:54.695Z,16096
2016-06-27T06:26:55.298Z,11720
2016-06-27T06:27:55.262Z,6108
2016-06-27T06:28:54.665Z,2420
2016-06-27T06:29:55.248Z,2548
2016-06-27T06:30:55.244Z,2696
2016-06-27T06:31:54.616Z,3116
2016-06-27T06:32:54.606Z,2592
2016-06-27T06:33:55.838Z,2812
2016-06-27T06:34:55.808Z,3628
2016-06-27T06:35:53.969Z,2916
2016-06-27T06:36:55.179Z,2756
2016-06-27T06:37:55.172Z,2816
2016-06-27T06:38:55.779Z,2580
2016-06-27T06:39:54.521Z,2580
2016-06-27T06:40:55.107Z,2576
2016-06-27T06:41:54.473Z,2552
2016-06-27T06:42:55.079Z,2724
2016-06-27T06:43:54.477Z,2704
2016-06-27T06:44:55.072Z,2688
2016-06-27T06:45:55.669Z,4164
2016-06-27T06:46:55.049Z,3944
2016-06-27T06:47:55.058Z,16128
2016-06-27T06:48:54.411Z,24448
2016-06-27T06:49:54.392Z,16176
2016-06-27T06:50:54.389Z,48544
2016-06-27T06:51:54.374Z,31072
2016-06-27T06:52:54.400Z,33216
2016-06-27T06:53:55.007Z,22080
2016-06-27T06:54:54.962Z,10444
2016-06-27T06:55:54.350Z,3644
2016-06-27T06:56:54.930Z,3208
2016-06-27T06:57:54.944Z,3132
2016-06-27T06:58:54.301Z,3044
2016-06-27T06:59:53.690Z,2988
2016-06-27T07:00:54.285Z,3148
2016-06-27T07:01:55.483Z,3200
2016-06-27T07:02:54.274Z,3304
2016-06-27T07:03:55.470Z,3420
2016-06-27T07:04:54.835Z,3392
2016-06-27T07:05:54.231Z,2940
2016-06-27T07:06:54.238Z,3324
2016-06-27T07:07:55.452Z,3172
2016-06-27T07:08:54.789Z,3288
2016-06-27T07:09:53.552Z,3556
2016-06-27T07:10:53.558Z,4604
2016-06-27T07:11:55.376Z,4232
2016-06-27T07:12:54.147Z,4304
2016-06-27T07:13:54.136Z,3932
2016-06-27T07:14:54.774Z,3720
2016-06-27T07:15:54.158Z,4272
2016-06-27T07:16:54.129Z,4064
2016-06-27T07:17:55.334Z,5064
2016-06-27T07:18:54.077Z,7604
2016-06-27T07:19:54.678Z,23104
2016-06-27T07:20:54.655Z,35520
2016-06-27T07:21:54.663Z,18688
2016-06-27T07:22:55.259Z,43360
2016-06-27T07:23:55.235Z,14140
2016-06-27T07:24:54.009Z,48576
2016-06-27T07:25:54.651Z,52576
2016-06-27T07:26:53.991Z,52576
2016-06-27T07:27:54.582Z,53440
2016-06-27T07:28:53.986Z,53984
2016-06-27T07:29:53.978Z,54560
2016-06-27T07:30:53.949Z,46304
2016-06-27T07:31:53.933Z,12788
2016-06-27T07:32:53.333Z,55776
2016-06-27T07:33:54.555Z,10176
2016-06-27T07:34:54.536Z,15520
2016-06-27T07:35:54.549Z,23840
2016-06-27T07:36:53.907Z,30080
2016-06-27T07:37:53.914Z,13816
2016-06-27T07:38:54.510Z,12276
2016-06-27T07:39:53.913Z,12524
2016-06-27T07:40:53.277Z,11524
2016-06-27T07:41:53.251Z,12720
2016-06-27T07:42:53.868Z,13704
2016-06-27T07:43:54.473Z,11336
2016-06-27T07:44:55.107Z,11880
2016-06-27T07:45:54.448Z,13048
2016-06-27T07:46:55.057Z,11648
2016-06-27T07:47:53.839Z,8800
2016-06-27T07:48:54.419Z,10088
2016-06-27T07:49:54.417Z,10472
2016-06-27T07:50:53.800Z,11408
2016-06-27T07:51:54.397Z,12428
2016-06-27T07:52:54.388Z,12188
2016-06-27T07:53:54.998Z,12184
2016-06-27T07:54:55.020Z,12244
2016-06-27T07:55:54.985Z,12380
2016-06-27T07:56:54.412Z,13040
2016-06-27T07:57:53.764Z,13648
2016-06-27T07:58:53.751Z,14256
2016-06-27T07:59:53.105Z,14568
2016-06-27T08:00:53.706Z,14900
2016-06-27T08:01:54.329Z,14400
2016-06-27T08:02:54.944Z,13412
2016-06-27T08:03:53.736Z,12376
2016-06-27T08:04:54.283Z,11508
2016-06-27T08:05:54.317Z,11136
2016-06-27T08:06:55.095Z,11260
2016-06-27T08:07:53.642Z,11600
2016-06-27T08:08:53.023Z,11452
2016-06-27T08:09:54.231Z,11148
2016-06-27T08:10:54.233Z,11328
2016-06-27T08:11:54.215Z,12048
2016-06-27T08:12:53.630Z,11788
2016-06-27T08:13:54.211Z,12284
2016-06-27T08:14:54.807Z,12300
2016-06-27T08:15:53.572Z,12312
2016-06-27T08:16:54.191Z,12820
2016-06-27T08:17:53.534Z,13244
2016-06-27T08:18:53.539Z,13300
2016-06-27T08:19:54.129Z,12960
2016-06-27T08:20:54.125Z,12800
2016-06-27T08:21:54.113Z,12568
2016-06-27T08:22:52.885Z,13204
2016-06-27T08:23:54.094Z,13324
2016-06-27T08:24:53.474Z,12664
2016-06-27T08:25:54.078Z,12016
2016-06-27T08:26:54.116Z,10932
2016-06-27T08:27:54.081Z,11528
2016-06-27T08:28:53.453Z,11876
2016-06-27T08:29:54.103Z,11876
2016-06-27T08:30:52.831Z,12004
2016-06-27T08:31:54.717Z,9872
2016-06-27T08:32:52.781Z,8916
2016-06-27T08:33:54.628Z,10172
2016-06-27T08:34:54.640Z,10664
2016-06-27T08:35:53.986Z,11560
2016-06-27T08:36:52.760Z,11728
2016-06-27T08:37:53.968Z,12040
2016-06-27T08:38:52.739Z,12372
2016-06-27T08:39:53.958Z,11260
2016-06-27T08:40:53.308Z,10160
2016-06-27T08:41:53.920Z,10764
2016-06-27T08:42:52.696Z,11672
2016-06-27T08:43:53.296Z,11432
2016-06-27T08:44:53.884Z,10648
2016-06-27T08:45:53.917Z,9904
2016-06-27T08:46:53.895Z,10228
2016-06-27T08:47:53.254Z,11424
2016-06-27T08:48:53.848Z,12648
2016-06-27T08:49:53.263Z,13116
2016-06-27T08:50:54.453Z,15424
2016-06-27T08:51:53.247Z,12252
2016-06-27T08:52:52.589Z,13372
2016-06-27T08:53:54.417Z,14288
2016-06-27T08:54:52.587Z,14252
2016-06-27T08:55:53.170Z,14336
2016-06-27T08:56:53.787Z,13036
2016-06-27T08:57:54.398Z,13228
2016-06-27T08:58:52.551Z,12404
2016-06-27T08:59:53.156Z,13016
2016-06-27T09:00:53.741Z,13652
2016-06-27T09:01:53.134Z,14464
2016-06-27T09:02:52.522Z,15424
2016-06-27T09:03:53.720Z,15896
2016-06-27T09:04:52.487Z,15908
2016-06-27T09:05:53.681Z,16352
2016-06-27T09:06:53.691Z,16672
2016-06-27T09:07:53.115Z,17024
2016-06-27T09:08:53.677Z,17312
2016-06-27T09:09:53.042Z,18016
2016-06-27T09:10:53.646Z,18240
2016-06-27T09:11:53.636Z,18720
2016-06-27T09:12:53.663Z,19104
2016-06-27T09:13:52.413Z,20480
2016-06-27T09:14:53.637Z,20192
2016-06-27T09:15:53.009Z,24832
2016-06-27T09:16:52.985Z,28512
2016-06-27T09:17:52.372Z,29824
2016-06-27T09:18:52.357Z,24928
2016-06-27T09:19:52.964Z,52640
2016-06-27T09:20:52.947Z,55520
2016-06-27T09:21:52.353Z,37248
2016-06-27T09:22:53.540Z,27104
2016-06-27T09:23:54.170Z,26496
2016-06-27T09:24:54.159Z,28096
2016-06-27T09:25:52.913Z,27680
2016-06-27T09:26:53.523Z,24352
2016-06-27T09:27:52.895Z,27328
2016-06-27T09:28:53.495Z,25920
2016-06-27T09:29:52.889Z,55456
2016-06-27T09:30:53.485Z,31232
2016-06-27T09:31:52.882Z,15096
2016-06-27T09:32:53.458Z,14992
2016-06-27T09:33:53.469Z,14876
2016-06-27T09:34:52.839Z,14476
2016-06-27T09:35:52.841Z,18624
2016-06-27T09:36:53.441Z,37088
2016-06-27T09:37:52.810Z,18016
2016-06-27T09:38:53.423Z,17088
2016-06-27T09:39:52.801Z,18144
2016-06-27T09:40:52.817Z,19296
2016-06-27T09:41:52.807Z,21216
2016-06-27T09:42:52.186Z,22400
2016-06-27T09:43:53.389Z,29280
2016-06-27T09:44:52.150Z,42688
2016-06-27T09:45:53.383Z,27584
2016-06-27T09:46:53.380Z,68480
2016-06-27T09:47:53.349Z,37952
2016-06-27T09:48:53.342Z,76224
2016-06-27T09:49:52.774Z,26464
2016-06-27T09:50:52.714Z,16304
2016-06-27T09:51:52.707Z,17568
2016-06-27T09:52:52.699Z,18432
2016-06-27T09:53:52.696Z,18496
2016-06-27T09:54:53.332Z,13968
2016-06-27T09:55:53.305Z,14160
2016-06-27T09:56:53.890Z,15336
2016-06-27T09:57:53.294Z,20672
2016-06-27T09:58:53.291Z,18976
2016-06-27T09:59:53.300Z,16864
2016-06-27T10:00:52.671Z,16640
2016-06-27T10:01:53.264Z,45984
2016-06-27T10:02:52.632Z,16324
2016-06-27T10:03:53.310Z,76384
2016-06-27T10:04:52.041Z,81472
2016-06-27T10:05:52.619Z,80448
2016-06-27T10:06:54.091Z,48096
2016-06-27T10:07:53.208Z,64512
2016-06-27T10:08:52.634Z,24576
2016-06-27T10:09:52.596Z,20640
2016-06-27T10:10:53.812Z,15784
2016-06-27T10:11:51.993Z,12964
2016-06-27T10:12:53.799Z,12984
2016-06-27T10:13:52.557Z,14608
2016-06-27T10:14:52.545Z,15264
2016-06-27T10:15:52.552Z,14704
2016-06-27T10:16:51.934Z,16416
2016-06-27T10:17:52.570Z,21408
2016-06-27T10:18:51.922Z,23328
2016-06-27T10:19:51.927Z,27264
2016-06-27T10:20:53.729Z,37632
2016-06-27T10:21:52.513Z,30880
2016-06-27T10:22:53.759Z,21696
2016-06-27T10:23:53.114Z,20224
2016-06-27T10:24:53.104Z,20320
2016-06-27T10:25:52.480Z,20640
2016-06-27T10:26:51.854Z,19520
2016-06-27T10:27:53.316Z,18560
2016-06-27T10:28:53.073Z,19040
2016-06-27T10:29:53.078Z,20864
2016-06-27T10:30:52.434Z,21120
2016-06-27T10:31:52.434Z,26912
2016-06-27T10:32:51.841Z,17440
2016-06-27T10:33:53.395Z,18144
2016-06-27T10:34:53.025Z,19232
2016-06-27T10:35:53.618Z,19040
2016-06-27T10:36:51.793Z,19968
2016-06-27T10:37:52.390Z,20032
2016-06-27T10:38:52.376Z,20352
2016-06-27T10:39:53.049Z,20768
2016-06-27T10:40:52.979Z,20960
2016-06-27T10:41:52.959Z,23200
2016-06-27T10:42:52.972Z,22336
2016-06-27T10:43:52.341Z,20992
2016-06-27T10:44:52.357Z,23776
2016-06-27T10:45:51.729Z,29504
2016-06-27T10:46:52.969Z,23136
2016-06-27T10:47:52.353Z,23584
2016-06-27T10:48:52.922Z,22080
2016-06-27T10:49:52.317Z,21056
2016-06-27T10:50:52.906Z,22432
2016-06-27T10:51:52.890Z,21728
2016-06-27T10:52:52.256Z,21120
2016-06-27T10:53:51.661Z,21696
2016-06-27T10:54:52.289Z,25664
2016-06-27T10:55:51.641Z,29280
2016-06-27T10:56:52.262Z,28928
2016-06-27T10:57:52.874Z,43872
2016-06-27T10:58:52.873Z,21536
2016-06-27T10:59:53.444Z,17408
2016-06-27T11:00:52.217Z,17440
2016-06-27T11:01:52.835Z,14276
2016-06-27T11:02:52.240Z,12720
2016-06-27T11:03:52.801Z,14636
2016-06-27T11:04:52.810Z,17632
2016-06-27T11:05:52.785Z,19936
2016-06-27T11:06:52.785Z,22720
2016-06-27T11:07:52.186Z,23712
2016-06-27T11:08:51.539Z,23904
2016-06-27T11:09:53.394Z,22400
2016-06-27T11:10:52.140Z,17696
2016-06-27T11:11:51.520Z,21792
2016-06-27T11:12:52.767Z,38976
2016-06-27T11:13:53.336Z,28384
2016-06-27T11:14:51.494Z,36032
2016-06-27T11:15:51.511Z,61344
2016-06-27T11:16:52.691Z,20128
2016-06-27T11:17:52.094Z,14944
2016-06-27T11:18:52.086Z,13660
2016-06-27T11:19:51.470Z,13048
2016-06-27T11:20:53.303Z,13036
2016-06-27T11:21:53.314Z,10200
2016-06-27T11:22:52.069Z,9788
2016-06-27T11:23:52.661Z,11180
2016-06-27T11:24:52.640Z,12624
2016-06-27T11:25:52.668Z,12096
2016-06-27T11:26:52.070Z,12152
2016-06-27T11:27:52.628Z,15008
2016-06-27T11:28:52.615Z,17056
2016-06-27T11:29:51.436Z,15500
2016-06-27T11:30:52.599Z,13600
2016-06-27T11:31:51.983Z,11988
2016-06-27T11:32:53.235Z,12340
2016-06-27T11:33:53.231Z,10264
2016-06-27T11:34:51.363Z,8576
2016-06-27T11:35:52.582Z,7528
2016-06-27T11:36:53.177Z,7408
2016-06-27T11:37:52.552Z,7372
2016-06-27T11:38:51.934Z,7932
2016-06-27T11:39:52.554Z,7408
2016-06-27T11:40:51.910Z,7244
2016-06-27T11:41:52.509Z,7516
2016-06-27T11:42:52.515Z,7992
2016-06-27T11:43:52.552Z,8112
2016-06-27T11:44:53.150Z,7528
2016-06-27T11:45:52.506Z,7796
2016-06-27T11:46:52.525Z,8416
2016-06-27T11:47:51.867Z,9912
2016-06-27T11:48:51.856Z,10864
2016-06-27T11:49:52.458Z,11476
2016-06-27T11:50:53.045Z,12416
2016-06-27T11:51:52.490Z,13204
2016-06-27T11:52:52.419Z,14208
2016-06-27T11:53:51.204Z,14816
2016-06-27T11:54:52.401Z,14356
2016-06-27T11:55:52.395Z,12464
2016-06-27T11:56:51.763Z,10844
2016-06-27T11:57:52.433Z,11080
2016-06-27T11:58:51.765Z,10892
2016-06-27T11:59:51.754Z,10328
2016-06-27T12:00:52.343Z,9956
2016-06-27T12:01:52.356Z,10364
2016-06-27T12:02:51.704Z,10464
2016-06-27T12:03:52.292Z,9860
2016-06-27T12:04:52.298Z,9536
2016-06-27T12:05:52.922Z,9004
2016-06-27T12:06:53.096Z,7860
2016-06-27T12:07:52.895Z,7412
2016-06-27T12:08:52.897Z,7660
2016-06-27T12:09:51.038Z,7376
2016-06-27T12:10:51.654Z,7452
2016-06-27T12:11:52.246Z,7788
2016-06-27T12:12:52.245Z,8268
2016-06-27T12:13:52.829Z,8748
2016-06-27T12:14:52.231Z,9144
2016-06-27T12:15:52.227Z,8748
2016-06-27T12:16:51.003Z,8748
2016-06-27T12:17:52.212Z,9088
2016-06-27T12:18:52.209Z,8520
2016-06-27T12:19:52.204Z,7820
2016-06-27T12:20:52.175Z,7476
2016-06-27T12:21:51.557Z,7952
2016-06-27T12:22:52.181Z,8836
2016-06-27T12:23:52.127Z,9300
2016-06-27T12:24:51.503Z,8172
2016-06-27T12:25:52.128Z,7676
2016-06-27T12:26:52.104Z,7552
2016-06-27T12:27:52.095Z,7796
2016-06-27T12:28:52.101Z,7840
2016-06-27T12:29:51.473Z,8336
2016-06-27T12:30:52.076Z,8336
2016-06-27T12:31:52.078Z,8112
2016-06-27T12:32:50.838Z,7248
2016-06-27T12:33:52.048Z,7940
2016-06-27T12:34:51.418Z,8492
2016-06-27T12:35:52.037Z,9124
2016-06-27T12:36:52.046Z,9612
2016-06-27T12:37:51.387Z,8392
2016-06-27T12:38:51.392Z,7620
2016-06-27T12:39:51.403Z,7336
2016-06-27T12:40:51.362Z,6928
2016-06-27T12:41:50.718Z,7024
2016-06-27T12:42:51.988Z,6964
2016-06-27T12:43:51.956Z,6952
2016-06-27T12:44:52.400Z,6900
2016-06-27T12:45:52.591Z,7040
2016-06-27T12:46:51.947Z,7212
2016-06-27T12:47:51.293Z,6944
2016-06-27T12:48:51.914Z,7220
2016-06-27T12:49:52.521Z,7352
2016-06-27T12:50:51.895Z,7740
2016-06-27T12:51:50.630Z,8364
2016-06-27T12:52:51.247Z,8872
2016-06-27T12:53:51.846Z,8928
2016-06-27T12:54:50.609Z,8120
2016-06-27T12:55:51.213Z,8592
2016-06-27T12:56:51.222Z,9596
2016-06-27T12:57:51.194Z,9276
2016-06-27T12:58:51.186Z,9596
2016-06-27T12:59:51.798Z,9492
2016-06-27T13:00:51.806Z,7508
2016-06-27T13:01:52.393Z,6220
2016-06-27T13:02:51.776Z,5648
2016-06-27T13:03:51.779Z,5976
2016-06-27T13:04:51.122Z,6228
2016-06-27T13:05:51.121Z,6552
2016-06-27T13:06:51.126Z,6512
2016-06-27T13:07:52.333Z,5564
2016-06-27T13:08:50.467Z,5824
2016-06-27T13:09:50.483Z,5804
2016-06-27T13:10:52.340Z,4616
2016-06-27T13:11:51.099Z,4644
2016-06-27T13:12:51.045Z,4888
2016-06-27T13:13:52.283Z,4480
2016-06-27T13:14:50.419Z,4192
2016-06-27T13:15:50.404Z,4360
2016-06-27T13:16:51.025Z,4600
2016-06-27T13:17:51.622Z,4824
2016-06-27T13:18:51.610Z,5000
2016-06-27T13:19:50.996Z,4908
2016-06-27T13:20:51.025Z,4912
2016-06-27T13:21:50.966Z,4956
2016-06-27T13:22:51.585Z,5060
2016-06-27T13:23:50.962Z,5420
2016-06-27T13:24:51.533Z,6100
2016-06-27T13:25:51.543Z,6500
2016-06-27T13:26:52.154Z,7500
2016-06-27T13:27:51.525Z,6644
2016-06-27T13:28:51.511Z,6624